Time;durP1;ratioP1;P1;durP2;ratioP2;P2;SDS_P1;SDS_P2;PMS_P1;PMS_P2;Temp;Humidity;BMP_temperature;BMP_pressure;BME280_temperature;BME280_humidity;BME280_pressure;Samples;Min_cycle;Max_cycle;Signal;HPM_P1;HPM_P2
2022/12/03 00:02:08;;;;;;;16.80;7.78;;;5.10;99.90;;;;;;5137817;27;20539;-68
2022/12/03 00:04:34;;;;;;;17.70;8.10;;;4.30;99.90;;;;;;5137757;27;20130;-68
2022/12/03 00:06:59;;;;;;;13.88;6.40;;;4.10;99.90;;;;;;5119999;27;20066;-68
2022/12/03 00:09:25;;;;;;;16.15;7.40;;;4.60;99.90;;;;;;5119998;27;20046;-68
2022/12/03 00:11:51;;;;;;;12.60;6.50;;;5.10;99.90;;;;;;5137651;27;20039;-68
2022/12/03 00:14:16;;;;;;;16.00;7.43;;;4.20;99.90;;;;;;5119954;27;20039;-68
2022/12/03 00:16:42;;;;;;;12.13;6.40;;;4.30;99.90;;;;;;5137558;27;20050;-68
2022/12/03 00:19:08;;;;;;;12.75;6.05;;;4.20;99.90;;;;;;5119329;27;20054;-68
2022/12/03 00:21:33;;;;;;;15.48;7.55;;;4.30;99.90;;;;;;5138305;27;20074;-68
2022/12/03 00:23:59;;;;;;;12.95;6.90;;;4.40;99.90;;;;;;5118978;27;20047;-68
2022/12/03 00:26:25;;;;;;;14.60;7.45;;;4.10;99.90;;;;;;5137954;27;20050;-68
2022/12/03 00:28:50;;;;;;;12.25;6.80;;;4.40;99.90;;;;;;5101976;27;20047;-67
2022/12/03 00:31:20;;;;;;;15.73;6.85;;;4.40;99.90;;;;;;5119437;27;20042;-67
2022/12/03 00:33:45;;;;;;;15.70;7.72;;;4.50;99.90;;;;;;5103163;27;20047;-68
2022/12/03 00:36:11;;;;;;;15.23;7.55;;;4.60;99.90;;;;;;5085528;27;20048;-68
2022/12/03 00:38:37;;;;;;;13.75;8.00;;;4.30;99.90;;;;;;5137002;27;20039;-68
2022/12/03 00:41:02;;;;;;;15.23;7.82;;;4.40;99.90;;;;;;5136135;27;20051;-68
2022/12/03 00:43:28;;;;;;;16.02;7.57;;;4.20;99.90;;;;;;5136987;27;20046;-68
2022/12/03 00:45:54;;;;;;;13.80;7.85;;;4.40;99.90;;;;;;5137063;27;20090;-68
2022/12/03 00:48:19;;;;;;;14.05;7.30;;;4.70;99.90;;;;;;5137539;27;20047;-68
2022/12/03 00:50:45;;;;;;;11.80;6.43;;;4.30;99.90;;;;;;5118813;27;20054;-68
2022/12/03 00:53:11;;;;;;;12.05;6.60;;;4.30;99.90;;;;;;5136869;27;20070;-68
2022/12/03 00:55:36;;;;;;;14.45;7.10;;;4.50;99.90;;;;;;5136852;27;20035;-68
2022/12/03 00:58:02;;;;;;;13.52;7.28;;;4.40;99.90;;;;;;5136488;27;20090;-68
2022/12/03 01:00:27;;;;;;;13.88;7.18;;;4.60;99.90;;;;;;5101306;27;20046;-68
2022/12/03 01:02:53;;;;;;;14.48;7.65;;;4.70;99.90;;;;;;5101586;27;20042;-68
2022/12/03 01:05:19;;;;;;;15.52;7.47;;;5.00;99.90;;;;;;5118611;27;20090;-68
2022/12/03 01:07:45;;;;;;;14.43;6.22;;;5.50;99.90;;;;;;5136659;27;20046;-68
2022/12/03 01:10:11;;;;;;;15.40;7.55;;;4.50;99.90;;;;;;5118193;27;20046;-68
2022/12/03 01:12:37;;;;;;;16.17;7.53;;;4.80;99.90;;;;;;5136505;27;20047;-68
2022/12/03 01:15:04;;;;;;;14.02;7.00;;;5.10;99.90;;;;;;5119188;27;20447;-68
2022/12/03 01:17:29;;;;;;;11.80;6.57;;;4.10;99.90;;;;;;5118342;27;20122;-67
2022/12/03 01:19:56;;;;;;;11.90;6.38;;;4.70;99.90;;;;;;5136873;27;20122;-68
2022/12/03 01:22:22;;;;;;;12.07;6.45;;;4.10;99.90;;;;;;5117889;27;20096;-68
2022/12/03 01:24:48;;;;;;;14.77;8.10;;;4.20;99.90;;;;;;5136231;27;20043;-68
2022/12/03 01:27:13;;;;;;;14.32;7.78;;;4.10;99.90;;;;;;5136484;27;20050;-68
2022/12/03 01:29:39;;;;;;;13.05;7.20;;;5.10;99.90;;;;;;5118052;27;20050;-68
2022/12/03 01:32:18;;;;;;;15.18;7.13;;;4.20;99.90;;;;;;5118185;27;20067;-68
2022/12/03 01:34:45;;;;;;;15.38;7.72;;;4.10;99.90;;;;;;5136193;27;20051;-68
2022/12/03 01:37:11;;;;;;;15.57;8.35;;;4.10;99.90;;;;;;5135728;27;20498;-68
2022/12/03 01:39:37;;;;;;;14.60;7.53;;;4.60;99.90;;;;;;5117661;27;20047;-68
2022/12/03 01:42:03;;;;;;;15.45;7.53;;;4.50;99.90;;;;;;5135905;27;20394;-68
2022/12/03 01:44:33;;;;;;;15.98;8.15;;;4.40;99.90;;;;;;5101050;27;20467;-68
2022/12/03 01:47:05;;;;;;;12.73;6.90;;;4.30;99.90;;;;;;5135748;27;20059;-68
2022/12/03 01:49:51;;;;;;;16.38;7.43;;;4.10;99.90;;;;;;5136094;27;20096;-68
2022/12/03 01:52:20;;;;;;;14.35;8.02;;;4.10;99.90;;;;;;5135627;27;20043;-68
2022/12/03 01:54:49;;;;;;;15.27;8.02;;;4.60;99.90;;;;;;5135178;27;20103;-68
2022/12/03 01:57:25;;;;;;;15.45;8.30;;;4.50;99.90;;;;;;5136126;27;20043;-68
2022/12/03 01:59:52;;;;;;;14.18;7.90;;;4.00;99.90;;;;;;5136323;27;20051;-68
2022/12/03 02:02:30;;;;;;;16.10;8.43;;;4.40;99.90;;;;;;5117252;27;20083;-68
2022/12/03 02:04:57;;;;;;;17.25;8.27;;;4.20;99.90;;;;;;5136318;27;20054;-68
2022/12/03 02:07:29;;;;;;;12.43;7.18;;;4.00;99.90;;;;;;5136259;27;20424;-67
2022/12/03 02:09:58;;;;;;;14.63;8.43;;;4.60;99.90;;;;;;5135359;27;20042;-68
2022/12/03 02:12:34;;;;;;;13.85;7.20;;;5.10;99.90;;;;;;5135840;27;20125;-68
2022/12/03 02:15:00;;;;;;;16.08;8.05;;;4.10;99.90;;;;;;5135353;27;20058;-68
2022/12/03 02:17:26;;;;;;;16.02;8.07;;;4.20;99.90;;;;;;5135271;27;20051;-68
2022/12/03 02:19:53;;;;;;;16.30;7.80;;;4.40;99.90;;;;;;5117152;27;20047;-68
2022/12/03 02:22:43;;;;;;;14.80;8.10;;;4.30;99.90;;;;;;5135098;27;20050;-68
2022/12/03 02:25:10;;;;;;;13.35;8.00;;;4.10;99.90;;;;;;5135125;27;20056;-68
2022/12/03 02:27:36;;;;;;;15.52;8.63;;;4.00;99.90;;;;;;5116996;27;20062;-68
2022/12/03 02:30:04;;;;;;;16.02;8.02;;;4.20;99.90;;;;;;5135265;27;20043;-68
2022/12/03 02:32:30;;;;;;;13.43;6.93;;;4.20;99.90;;;;;;5134873;27;20123;-68
2022/12/03 02:34:55;;;;;;;15.57;8.45;;;5.40;99.90;;;;;;5134877;27;20541;-68
2022/12/03 02:37:24;;;;;;;15.05;7.78;;;4.50;99.90;;;;;;5134999;27;20466;-68
2022/12/03 02:39:54;;;;;;;11.13;6.72;;;4.50;99.90;;;;;;5135035;27;20043;-68
2022/12/03 02:42:35;;;;;;;13.40;6.97;;;4.20;99.90;;;;;;5134519;27;20126;-68
2022/12/03 02:45:30;;;;;;;13.50;7.25;;;4.20;99.90;;;;;;5135389;27;20080;-68
2022/12/03 02:48:25;;;;;;;14.07;6.93;;;4.30;99.90;;;;;;5131295;27;20043;-68
2022/12/03 02:50:53;;;;;;;19.42;9.40;;;4.00;99.90;;;;;;5116659;27;20050;-68
2022/12/03 02:53:23;;;;;;;13.35;7.72;;;3.90;99.90;;;;;;5134726;27;20167;-68
2022/12/03 02:55:50;;;;;;;13.88;8.13;;;4.70;99.90;;;;;;5116272;27;20043;-68
2022/12/03 02:58:17;;;;;;;13.98;6.88;;;4.00;99.90;;;;;;5134324;27;20410;-67
2022/12/03 03:00:44;;;;;;;17.40;8.40;;;4.70;99.90;;;;;;5134977;28;20035;-68
2022/12/03 03:03:10;;;;;;;14.30;7.53;;;4.00;99.90;;;;;;5115956;28;20126;-68
2022/12/03 03:05:37;;;;;;;13.68;8.15;;;4.00;99.90;;;;;;5134561;28;20088;-68
2022/12/03 03:08:05;;;;;;;15.23;8.35;;;5.00;99.90;;;;;;5135344;28;20366;-68
2022/12/03 03:10:34;;;;;;;13.98;7.28;;;4.40;99.90;;;;;;5134468;28;20116;-68
2022/12/03 03:13:03;;;;;;;13.27;7.22;;;4.50;99.90;;;;;;5134492;28;20050;-68
2022/12/03 03:15:29;;;;;;;15.02;8.05;;;4.10;99.90;;;;;;5134778;28;20100;-68
2022/12/03 03:17:55;;;;;;;15.93;7.65;;;4.20;99.90;;;;;;5135012;28;20475;-68
2022/12/03 03:20:20;;;;;;;14.27;8.02;;;4.20;99.90;;;;;;5116094;28;20385;-68
2022/12/03 03:22:46;;;;;;;14.98;7.70;;;5.20;99.90;;;;;;5134327;27;20047;-68
2022/12/03 03:25:17;;;;;;;14.27;7.15;;;4.30;99.90;;;;;;5116097;28;20491;-68
2022/12/03 03:27:44;;;;;;;14.52;7.32;;;4.30;99.90;;;;;;5116138;28;20043;-68
2022/12/03 03:30:11;;;;;;;14.43;8.25;;;4.40;99.90;;;;;;5116561;28;20051;-68
2022/12/03 03:32:38;;;;;;;15.68;7.50;;;4.00;99.90;;;;;;5134205;28;20043;-68
2022/12/03 03:35:04;;;;;;;14.88;7.55;;;4.20;99.90;;;;;;5134228;28;20047;-68
2022/12/03 03:37:30;;;;;;;13.57;7.75;;;4.10;99.90;;;;;;5116567;28;20273;-68
2022/12/03 03:39:56;;;;;;;16.17;7.78;;;4.80;99.90;;;;;;5134202;28;20519;-68
2022/12/03 03:42:22;;;;;;;13.95;7.15;;;3.90;99.90;;;;;;5116738;28;20049;-68
2022/12/03 03:44:48;;;;;;;15.20;8.70;;;4.20;99.90;;;;;;5134190;28;20043;-68
2022/12/03 03:47:14;;;;;;;15.30;7.30;;;5.00;99.90;;;;;;5115928;28;20067;-68
2022/12/03 03:49:41;;;;;;;16.25;8.73;;;3.90;99.90;;;;;;5098863;28;20043;-68
2022/12/03 03:52:09;;;;;;;14.68;7.32;;;4.70;99.90;;;;;;5134077;28;20042;-68
2022/12/03 03:54:35;;;;;;;14.35;8.23;;;3.90;99.90;;;;;;5115864;28;20055;-68
2022/12/03 03:57:01;;;;;;;13.90;7.70;;;4.50;99.90;;;;;;5116411;28;20091;-68
2022/12/03 03:59:28;;;;;;;15.48;8.13;;;5.10;99.90;;;;;;5134002;28;20039;-68
2022/12/03 04:01:54;;;;;;;16.50;8.48;;;4.50;99.90;;;;;;5115832;28;20047;-68
2022/12/03 04:04:21;;;;;;;15.75;8.32;;;3.90;99.90;;;;;;5134082;28;20054;-68
2022/12/03 04:06:47;;;;;;;15.52;7.75;;;5.10;99.90;;;;;;5133962;28;20039;-68
2022/12/03 04:09:13;;;;;;;16.83;9.13;;;4.20;99.90;;;;;;5098980;28;20047;-69
2022/12/03 04:14:23;;;;;;;15.77;8.52;;;4.50;99.90;;;;;;5119308;27;20047;-68
2022/12/03 04:16:49;;;;;;;16.83;8.25;;;4.70;99.90;;;;;;5102379;27;20054;-68
2022/12/03 04:19:15;;;;;;;16.67;7.97;;;3.80;99.90;;;;;;5137513;27;20039;-68
2022/12/03 04:24:24;;;;;;;14.55;7.88;;;4.40;99.90;;;;;;5137471;27;20055;-68
2022/12/03 04:29:34;;;;;;;17.30;9.00;;;4.30;99.90;;;;;;5137345;27;20093;-68
2022/12/03 04:37:28;;;;;;;12.57;7.28;;;4.00;99.90;;;;;;5137775;27;20087;-68
2022/12/03 04:39:54;;;;;;;13.60;7.40;;;3.80;99.90;;;;;;5137159;27;20074;-68
2022/12/03 04:42:20;;;;;;;15.60;8.63;;;3.90;99.90;;;;;;5118839;27;20460;-68
2022/12/03 04:44:46;;;;;;;17.92;9.23;;;4.10;99.90;;;;;;5137039;27;20100;-68
2022/12/03 04:47:14;;;;;;;17.20;8.40;;;3.90;99.90;;;;;;5118191;27;20060;-68
2022/12/03 04:49:45;;;;;;;15.73;8.18;;;3.90;99.90;;;;;;5137840;27;20391;-68
2022/12/03 04:52:14;;;;;;;18.02;8.32;;;3.80;99.90;;;;;;5136921;27;20048;-68
2022/12/03 04:54:40;;;;;;;18.08;9.23;;;4.30;99.90;;;;;;5136877;27;20043;-68
2022/12/03 04:57:07;;;;;;;16.63;8.38;;;3.60;99.90;;;;;;5136901;27;20146;-67
2022/12/03 04:59:33;;;;;;;17.80;9.07;;;4.10;99.90;;;;;;5136616;27;20046;-68
2022/12/03 05:01:59;;;;;;;18.05;9.18;;;3.80;99.90;;;;;;5118571;27;20118;-68
2022/12/03 05:04:25;;;;;;;14.13;8.60;;;4.00;99.90;;;;;;5137012;27;20082;-68
2022/12/03 05:06:51;;;;;;;18.00;9.07;;;5.00;99.90;;;;;;5118513;27;20047;-68
2022/12/03 05:09:17;;;;;;;17.30;8.20;;;3.80;99.90;;;;;;5101238;27;20050;-69
2022/12/03 05:11:43;;;;;;;15.40;8.35;;;3.70;99.90;;;;;;5118232;27;20043;-68
2022/12/03 05:14:09;;;;;;;18.13;8.93;;;4.20;99.90;;;;;;5136506;27;20043;-68
2022/12/03 05:16:35;;;;;;;17.45;8.93;;;4.70;99.90;;;;;;5136473;27;20079;-68
2022/12/03 05:19:02;;;;;;;18.50;9.57;;;3.60;99.90;;;;;;5135988;27;20043;-68
2022/12/03 05:21:28;;;;;;;18.20;8.88;;;4.20;99.90;;;;;;5136342;27;20095;-68
2022/12/03 05:23:53;;;;;;;15.40;7.75;;;3.60;99.90;;;;;;5136836;27;20044;-68
2022/12/03 05:26:19;;;;;;;19.23;8.32;;;3.70;99.90;;;;;;5136087;27;20108;-68
2022/12/03 05:28:45;;;;;;;14.85;7.18;;;3.70;99.90;;;;;;5136574;27;20047;-68
2022/12/03 05:31:11;;;;;;;16.52;7.32;;;3.70;99.90;;;;;;5117901;27;20090;-67
2022/12/03 05:33:36;;;;;;;15.63;8.48;;;3.70;99.90;;;;;;5136076;27;20088;-68
2022/12/03 05:36:02;;;;;;;15.20;9.02;;;4.30;99.90;;;;;;5136035;27;20093;-68
2022/12/03 05:38:28;;;;;;;15.52;8.35;;;3.70;99.90;;;;;;5135683;27;20039;-68
2022/12/03 05:40:53;;;;;;;18.60;9.00;;;4.80;99.90;;;;;;5117589;27;20042;-69
2022/12/03 05:43:19;;;;;;;18.25;8.52;;;3.50;99.90;;;;;;5117630;27;20047;-67
2022/12/03 05:45:45;;;;;;;17.20;8.90;;;3.80;99.90;;;;;;5136181;27;20047;-67
2022/12/03 05:48:13;;;;;;;17.42;8.38;;;3.70;99.90;;;;;;5135758;27;20054;-68
2022/12/03 05:50:42;;;;;;;15.52;8.30;;;3.50;99.90;;;;;;5135820;27;20065;-68
2022/12/03 05:53:08;;;;;;;16.60;7.38;;;3.50;99.90;;;;;;5117866;27;20047;-68
2022/12/03 05:55:34;;;;;;;16.80;7.97;;;3.60;99.90;;;;;;5136241;27;20073;-68
2022/12/03 05:57:59;;;;;;;14.95;7.72;;;4.00;99.90;;;;;;5135669;27;20051;-68
2022/12/03 06:00:27;;;;;;;14.75;7.70;;;3.50;99.90;;;;;;5117170;27;20147;-68
2022/12/03 06:02:53;;;;;;;16.05;7.78;;;3.80;99.90;;;;;;5117612;27;20065;-68
2022/12/03 06:05:19;;;;;;;16.92;8.25;;;3.80;99.90;;;;;;5117043;27;20047;-68
2022/12/03 06:07:46;;;;;;;17.77;8.50;;;4.20;99.90;;;;;;5117145;27;20112;-68
2022/12/03 06:10:15;;;;;;;14.07;8.15;;;4.00;99.90;;;;;;5151703;27;20479;-68
2022/12/03 06:12:41;;;;;;;15.68;8.52;;;3.90;99.90;;;;;;5135335;27;20134;-68
2022/12/03 06:15:08;;;;;;;15.15;8.10;;;3.70;99.90;;;;;;5135943;27;20054;-68
2022/12/03 06:17:33;;;;;;;14.02;7.88;;;3.40;99.90;;;;;;5135319;27;20047;-68
2022/12/03 06:19:59;;;;;;;14.88;7.43;;;4.10;99.90;;;;;;5100272;27;20042;-68
2022/12/03 06:22:25;;;;;;;16.40;8.93;;;4.40;99.90;;;;;;5135161;27;20039;-68
2022/12/03 06:24:51;;;;;;;17.75;9.07;;;3.90;99.90;;;;;;5116825;27;20110;-68
2022/12/03 06:27:17;;;;;;;16.65;8.50;;;3.60;99.90;;;;;;5117526;27;20115;-68
2022/12/03 06:29:43;;;;;;;15.88;7.70;;;4.30;99.90;;;;;;5135070;27;20042;-68
2022/12/03 06:32:09;;;;;;;16.10;8.25;;;3.90;99.90;;;;;;5134636;27;20047;-68
2022/12/03 06:34:44;;;;;;;16.42;8.77;;;3.70;99.90;;;;;;5100257;27;20096;-68
2022/12/03 06:37:09;;;;;;;12.10;6.57;;;3.70;99.90;;;;;;5116090;28;20043;-68
2022/12/03 06:39:35;;;;;;;15.57;8.38;;;3.50;99.90;;;;;;5116705;27;20046;-68
2022/12/03 06:42:01;;;;;;;18.48;9.27;;;3.40;99.90;;;;;;5134872;27;20088;-68
2022/12/03 06:44:26;;;;;;;15.63;9.02;;;4.00;99.90;;;;;;5134835;27;20406;-68
2022/12/03 06:46:52;;;;;;;17.98;8.63;;;3.40;99.90;;;;;;5135206;27;20496;-68
2022/12/03 06:49:18;;;;;;;17.63;9.10;;;3.30;99.90;;;;;;5116541;27;20043;-68
2022/12/03 06:51:44;;;;;;;17.60;8.20;;;4.10;99.90;;;;;;5134926;27;20047;-68
2022/12/03 06:54:10;;;;;;;16.17;9.38;;;4.30;99.90;;;;;;5134739;27;20043;-68
2022/12/03 06:56:35;;;;;;;18.08;8.70;;;3.50;99.90;;;;;;5116580;28;20364;-68
2022/12/03 06:59:01;;;;;;;15.82;9.00;;;3.50;99.90;;;;;;5134585;27;20055;-68
2022/12/03 07:01:27;;;;;;;19.67;9.23;;;3.60;99.90;;;;;;5134684;27;20094;-68
2022/12/03 07:03:53;;;;;;;20.13;10.02;;;3.50;99.90;;;;;;5116511;28;20479;-68
2022/12/03 07:06:18;;;;;;;17.75;8.85;;;3.90;99.90;;;;;;5117245;28;20374;-68
2022/12/03 07:08:44;;;;;;;17.17;8.38;;;4.20;99.90;;;;;;5134830;28;20046;-68
2022/12/03 07:11:29;;;;;;;17.17;9.43;;;3.70;99.90;;;;;;5134516;28;20049;-68
2022/12/03 07:13:56;;;;;;;18.25;10.13;;;3.50;99.90;;;;;;5117354;28;20047;-68
2022/12/03 07:16:22;;;;;;;17.45;8.82;;;4.00;99.90;;;;;;5134491;28;20122;-68
2022/12/03 07:18:48;;;;;;;17.00;9.40;;;4.40;99.90;;;;;;5134433;28;20078;-68
2022/12/03 07:21:13;;;;;;;18.50;9.15;;;3.40;99.90;;;;;;5134377;28;20046;-68
2022/12/03 07:23:39;;;;;;;17.15;9.55;;;4.10;99.90;;;;;;5116187;28;20091;-68
2022/12/03 07:26:05;;;;;;;15.95;9.07;;;3.40;99.90;;;;;;5134912;28;20047;-68
2022/12/03 07:28:31;;;;;;;16.33;9.80;;;4.20;99.90;;;;;;5134435;28;20504;-68
2022/12/03 07:30:56;;;;;;;18.33;9.32;;;4.00;99.90;;;;;;5116110;28;20054;-68
2022/12/03 07:33:22;;;;;;;18.52;8.45;;;4.10;99.90;;;;;;5134289;28;20075;-68
2022/12/03 07:35:48;;;;;;;17.80;9.65;;;3.70;99.90;;;;;;5134788;28;20043;-68
2022/12/03 07:38:13;;;;;;;17.55;9.70;;;3.60;99.90;;;;;;5116688;28;20086;-68
2022/12/03 07:40:39;;;;;;;18.45;9.27;;;4.40;99.90;;;;;;5116478;28;20043;-68
2022/12/03 07:43:05;;;;;;;17.27;9.73;;;3.50;99.90;;;;;;5134276;28;20103;-68
2022/12/03 07:45:30;;;;;;;19.35;10.63;;;3.40;99.90;;;;;;5098895;28;20159;-68
2022/12/03 07:47:56;;;;;;;18.60;10.05;;;3.90;99.90;;;;;;5116223;28;20096;-68
2022/12/03 07:50:22;;;;;;;19.75;10.45;;;4.20;99.90;;;;;;5137728;27;20118;-68
2022/12/03 07:52:47;;;;;;;16.95;8.85;;;4.20;99.90;;;;;;5120247;27;20043;-68
2022/12/03 07:55:13;;;;;;;17.05;9.07;;;4.50;99.90;;;;;;5120771;27;20035;-68
2022/12/03 07:57:39;;;;;;;20.92;9.95;;;3.30;99.90;;;;;;5120250;27;20131;-68
2022/12/03 08:00:05;;;;;;;18.80;10.50;;;3.60;99.90;;;;;;5119634;27;20043;-69
2022/12/03 08:02:31;;;;;;;17.83;9.75;;;3.40;99.90;;;;;;5137783;27;20086;-69
2022/12/03 08:04:57;;;;;;;17.92;8.63;;;3.30;99.90;;;;;;5138129;27;20090;-68
2022/12/03 08:07:23;;;;;;;18.60;9.05;;;3.30;99.90;;;;;;5137791;27;20095;-68
2022/12/03 08:09:49;;;;;;;20.35;9.57;;;3.50;99.90;;;;;;5137827;27;20066;-68
2022/12/03 08:12:38;;;;;;;19.15;9.80;;;3.30;99.90;;;;;;5138283;27;20148;-68
2022/12/03 08:15:24;;;;;;;19.27;9.70;;;3.20;99.90;;;;;;5138233;27;20047;-68
2022/12/03 08:18:00;;;;;;;21.50;9.40;;;3.30;99.90;;;;;;5119589;27;20047;-68
2022/12/03 08:20:28;;;;;;;18.00;8.75;;;4.10;99.90;;;;;;5119332;27;20081;-68
2022/12/03 08:22:55;;;;;;;18.92;9.32;;;4.00;99.90;;;;;;5138327;27;20043;-68
2022/12/03 08:25:30;;;;;;;19.00;9.68;;;3.30;99.90;;;;;;5120237;27;20351;-68
2022/12/03 08:28:13;;;;;;;18.15;9.70;;;3.10;99.90;;;;;;5138071;27;20047;-68
2022/12/03 08:30:41;;;;;;;21.25;10.30;;;3.30;99.90;;;;;;5138088;27;20043;-68
2022/12/03 08:33:37;;;;;;;21.73;10.88;;;3.40;99.90;;;;;;5103156;27;20085;-68
2022/12/03 08:36:25;;;;;;;21.33;9.82;;;3.30;99.90;;;;;;5102195;27;20062;-68
2022/12/03 08:39:04;;;;;;;23.13;10.00;;;4.10;99.90;;;;;;5138091;27;20058;-68
2022/12/03 08:44:31;;;;;;;20.10;9.73;;;3.30;99.90;;;;;;5137715;27;20108;-68
2022/12/03 08:47:09;;;;;;;20.37;10.23;;;3.20;99.90;;;;;;5118842;27;20059;-67
2022/12/03 08:49:35;;;;;;;18.38;8.73;;;4.10;99.90;;;;;;5136862;27;20908;-68
2022/12/03 08:52:19;;;;;;;18.48;10.05;;;4.60;99.90;;;;;;5137116;27;20045;-67
2022/12/03 08:54:52;;;;;;;;;;;3.30;99.90;;;;;;5119686;27;20133;-66
2022/12/03 08:57:29;;;;;;;18.50;9.55;;;3.20;99.90;;;;;;5137008;27;19919;-66
2022/12/03 09:00:02;;;;;;;20.38;9.82;;;4.30;99.90;;;;;;5136504;27;20051;-67
2022/12/03 09:02:33;;;;;;;21.42;10.85;;;3.40;99.90;;;;;;5135911;27;20082;-66
2022/12/03 09:05:17;;;;;;;21.65;10.70;;;3.10;99.90;;;;;;5119025;27;20078;-66
2022/12/03 09:07:43;;;;;;;18.70;10.02;;;3.10;99.90;;;;;;5118968;27;20099;-68
2022/12/03 09:10:09;;;;;;;21.60;11.05;;;3.00;99.90;;;;;;5102408;27;20043;-68
2022/12/03 09:12:35;;;;;;;21.50;11.13;;;3.10;99.90;;;;;;5136678;27;20054;-68
2022/12/03 09:15:00;;;;;;;21.00;10.55;;;3.50;99.90;;;;;;5136930;27;20039;-69
2022/12/03 09:17:26;;;;;;;21.48;10.98;;;3.00;99.90;;;;;;5136634;27;20054;-68
2022/12/03 09:19:52;;;;;;;20.92;10.65;;;3.00;99.90;;;;;;5136443;27;20084;-68
2022/12/03 09:22:18;;;;;;;21.60;10.00;;;3.10;99.90;;;;;;5135717;27;20058;-68
2022/12/03 09:24:44;;;;;;;21.65;10.18;;;3.00;99.90;;;;;;5136519;27;20525;-68
2022/12/03 09:27:09;;;;;;;22.17;10.60;;;3.90;99.90;;;;;;5137218;27;20053;-69
2022/12/03 09:29:35;;;;;;;22.65;10.63;;;3.80;99.90;;;;;;5101572;27;20481;-68
2022/12/03 09:32:00;;;;;;;24.42;11.32;;;2.90;99.90;;;;;;5136280;27;20414;-66
2022/12/03 09:34:26;;;;;;;22.20;10.63;;;3.40;99.90;;;;;;5136334;27;20043;-67
2022/12/03 09:36:52;;;;;;;22.77;11.02;;;3.40;99.90;;;;;;5118146;27;20189;-67
2022/12/03 09:39:17;;;;;;;22.77;10.70;;;2.90;99.90;;;;;;5101066;27;20085;-67
2022/12/03 09:41:43;;;;;;;21.15;11.32;;;3.90;99.90;;;;;;5117819;27;20130;-68
2022/12/03 09:44:10;;;;;;;25.48;11.82;;;2.90;99.90;;;;;;5136000;27;20087;-68
2022/12/03 09:46:37;;;;;;;23.15;11.23;;;3.10;99.90;;;;;;5136308;27;20417;-69
2022/12/03 09:49:06;;;;;;;22.35;10.77;;;2.80;99.90;;;;;;5100458;27;20401;-70
2022/12/03 09:51:35;;;;;;;21.02;9.52;;;3.40;99.90;;;;;;5135943;27;20092;-69
2022/12/03 09:54:03;;;;;;;20.52;10.00;;;3.30;99.90;;;;;;5118208;27;20079;-69
2022/12/03 09:56:30;;;;;;;22.33;10.88;;;2.80;99.90;;;;;;5117492;27;20042;-69
2022/12/03 09:58:56;;;;;;;19.90;9.98;;;2.80;99.90;;;;;;5135833;27;20043;-70
2022/12/03 10:01:22;;;;;;;19.23;10.68;;;4.50;99.90;;;;;;5135648;27;20114;-69
2022/12/03 10:03:50;;;;;;;22.05;10.88;;;2.70;99.90;;;;;;5135689;27;20043;-69
2022/12/03 10:06:21;;;;;;;22.20;10.00;;;3.00;99.90;;;;;;5117128;27;20497;-69
2022/12/03 10:08:50;;;;;;;24.13;11.52;;;3.70;99.90;;;;;;5136306;27;20419;-69
2022/12/03 10:11:18;;;;;;;22.10;11.05;;;3.00;99.90;;;;;;5100474;27;20043;-69
2022/12/03 10:13:44;;;;;;;22.55;11.07;;;3.80;99.90;;;;;;5100755;27;20078;-69
2022/12/03 10:16:14;;;;;;;21.88;10.68;;;2.90;99.90;;;;;;5117183;27;20047;-69
2022/12/03 10:18:44;;;;;;;23.23;11.57;;;2.80;99.90;;;;;;5117323;27;20074;-69
2022/12/03 10:21:25;;;;;;;21.42;9.63;;;2.80;99.90;;;;;;5117294;27;20096;-69
2022/12/03 10:24:17;;;;;;;22.23;11.13;;;3.40;99.90;;;;;;5117648;27;20135;-70
2022/12/03 10:26:44;;;;;;;21.33;10.85;;;2.70;99.90;;;;;;5135353;27;20075;-69
2022/12/03 10:29:26;;;;;;;23.65;11.57;;;4.20;99.90;;;;;;5117668;27;20050;-69
2022/12/03 10:31:58;;;;;;;23.27;11.52;;;3.30;99.90;;;;;;5116956;27;20046;-69
2022/12/03 10:34:32;;;;;;;20.77;10.70;;;3.00;99.90;;;;;;5117503;27;20086;-69
2022/12/03 10:37:17;;;;;;;20.60;11.45;;;2.80;99.90;;;;;;5135239;27;20046;-69
2022/12/03 10:39:53;;;;;;;21.90;10.05;;;4.20;99.90;;;;;;5135076;27;20044;-69
2022/12/03 10:42:39;;;;;;;24.02;11.88;;;3.00;99.90;;;;;;5074693;27;20050;-68
2022/12/03 10:45:14;;;;;;;22.73;11.32;;;3.30;99.90;;;;;;5135087;27;20489;-68
2022/12/03 10:47:41;;;;;;;20.08;10.07;;;3.00;99.90;;;;;;5134818;27;20084;-69
2022/12/03 10:50:18;;;;;;;20.13;9.80;;;3.50;99.90;;;;;;5116648;27;20049;-67
2022/12/03 10:52:45;;;;;;;19.83;9.60;;;2.90;99.90;;;;;;5100775;28;20074;-68
2022/12/03 10:55:15;;;;;;;22.05;11.13;;;3.00;99.90;;;;;;5134871;27;20046;-68
2022/12/03 10:57:41;;;;;;;20.30;9.45;;;3.80;99.90;;;;;;5135716;27;20363;-67
2022/12/03 11:00:10;;;;;;;22.85;11.73;;;3.00;99.90;;;;;;5134705;27;20035;-68
2022/12/03 11:02:36;;;;;;;22.02;10.40;;;2.90;99.90;;;;;;5134709;28;20050;-67
2022/12/03 11:05:02;;;;;;;21.35;10.35;;;3.10;99.90;;;;;;5135360;28;20039;-67
2022/12/03 11:07:29;;;;;;;21.30;10.68;;;2.90;99.90;;;;;;5116461;28;20046;-68
2022/12/03 11:09:57;;;;;;;21.80;9.32;;;3.00;99.90;;;;;;5100576;28;20090;-67
2022/12/03 11:12:33;;;;;;;23.88;11.20;;;3.10;99.90;;;;;;5134547;28;20394;-68
2022/12/03 11:15:05;;;;;;;21.95;11.18;;;2.80;99.90;;;;;;5135510;28;20050;-68
2022/12/03 11:17:46;;;;;;;22.88;10.20;;;3.00;99.90;;;;;;5116733;28;20058;-68
2022/12/03 11:20:32;;;;;;;23.67;11.02;;;2.90;99.90;;;;;;5135243;28;20043;-69
2022/12/03 11:22:58;;;;;;;20.77;10.30;;;3.20;99.90;;;;;;5134780;27;20394;-68
2022/12/03 11:25:24;;;;;;;22.13;10.73;;;3.00;99.90;;;;;;5119892;27;20086;-68
2022/12/03 11:28:14;;;;;;;22.67;11.18;;;2.90;99.90;;;;;;5138690;27;20039;-68
2022/12/03 11:30:55;;;;;;;23.52;10.68;;;3.00;99.90;;;;;;5119950;27;20043;-68
2022/12/03 11:33:22;;;;;;;24.48;10.57;;;3.10;99.90;;;;;;5138843;27;20055;-68
2022/12/03 11:36:03;;;;;;;22.77;10.63;;;3.70;99.90;;;;;;5138532;27;20482;-67
2022/12/03 11:38:40;;;;;;;19.58;10.18;;;3.50;99.90;;;;;;5138554;27;20043;-67
2022/12/03 11:41:07;;;;;;;22.30;10.73;;;3.50;99.90;;;;;;5139211;27;20341;-67
2022/12/03 11:43:57;;;;;;;21.63;10.20;;;3.00;99.90;;;;;;5119997;27;20104;-67
2022/12/03 11:46:27;;;;;;;25.70;11.73;;;3.00;99.90;;;;;;5139075;27;20442;-68
2022/12/03 11:48:56;;;;;;;20.20;10.38;;;3.00;99.90;;;;;;5119908;27;20043;-68
2022/12/03 11:51:25;;;;;;;20.45;9.98;;;3.30;99.90;;;;;;5138259;27;20043;-68
2022/12/03 11:53:52;;;;;;;19.98;9.60;;;4.40;99.90;;;;;;5138185;27;20068;-68
2022/12/03 11:56:28;;;;;;;21.45;11.73;;;3.00;99.90;;;;;;5138144;27;20082;-68
2022/12/03 11:59:03;;;;;;;20.90;9.13;;;3.80;99.90;;;;;;5120053;27;20067;-68
2022/12/03 12:01:34;;;;;;;20.58;10.02;;;3.30;99.90;;;;;;5137914;27;20121;-68
2022/12/03 12:04:00;;;;;;;19.73;10.18;;;3.20;99.90;;;;;;5119342;27;20047;-67
2022/12/03 12:06:26;;;;;;;21.77;10.15;;;2.90;99.90;;;;;;5137947;27;20047;-68
2022/12/03 12:08:56;;;;;;;20.08;10.30;;;3.80;99.90;;;;;;5138493;27;20054;-68
2022/12/03 12:11:29;;;;;;;24.80;11.00;;;2.90;99.90;;;;;;5138723;27;20039;-68
2022/12/03 12:14:03;;;;;;;23.17;10.07;;;2.90;99.90;;;;;;5137926;27;20050;-68
2022/12/03 12:16:49;;;;;;;23.17;10.82;;;2.90;99.90;;;;;;5120583;27;20043;-68
2022/12/03 12:19:42;;;;;;;21.17;11.00;;;3.00;99.90;;;;;;5119264;27;20474;-68
2022/12/03 12:22:13;;;;;;;20.88;9.40;;;3.00;99.90;;;;;;5120445;27;20447;-67
2022/12/03 12:24:39;;;;;;;18.58;10.10;;;2.90;99.90;;;;;;5102498;27;20085;-67
2022/12/03 12:27:12;;;;;;;20.67;10.27;;;4.00;99.90;;;;;;5137558;27;20047;-68
2022/12/03 12:29:41;;;;;;;22.20;10.63;;;3.90;99.90;;;;;;5119254;27;20039;-68
2022/12/03 12:32:10;;;;;;;21.67;10.60;;;3.00;99.90;;;;;;5137968;27;20420;-68
2022/12/03 12:34:37;;;;;;;23.30;10.45;;;3.70;99.90;;;;;;5118703;27;20103;-68
2022/12/03 12:37:09;;;;;;;17.92;9.07;;;3.10;99.90;;;;;;5118159;27;20394;-67
2022/12/03 12:39:35;;;;;;;20.88;9.80;;;2.80;99.90;;;;;;5137804;27;20477;-67
2022/12/03 12:42:07;;;;;;;21.00;11.10;;;3.00;99.90;;;;;;5119489;27;20129;-68
2022/12/03 12:44:32;;;;;;;20.52;10.25;;;3.10;99.90;;;;;;5137779;27;20412;-67
2022/12/03 12:47:02;;;;;;;20.25;9.90;;;3.00;99.90;;;;;;5118932;27;20137;-67
2022/12/03 12:49:28;;;;;;;21.98;10.38;;;3.10;99.90;;;;;;5137116;27;20130;-67
2022/12/03 12:51:54;;;;;;;22.60;9.77;;;3.10;99.90;;;;;;5101770;27;20054;-67
2022/12/03 12:54:20;;;;;;;19.77;9.93;;;3.60;99.90;;;;;;5118885;27;20047;-67
2022/12/03 12:56:49;;;;;;;22.42;9.43;;;3.00;99.90;;;;;;5118811;27;20043;-67
2022/12/03 12:59:19;;;;;;;21.58;10.88;;;3.00;99.90;;;;;;5136835;27;20050;-68
2022/12/03 13:01:47;;;;;;;19.95;9.70;;;3.60;99.90;;;;;;5118709;27;20043;-68
2022/12/03 13:04:22;;;;;;;19.38;9.60;;;4.10;99.90;;;;;;5118740;27;20053;-68
2022/12/03 13:06:52;;;;;;;20.65;10.00;;;3.70;99.90;;;;;;5137362;27;20053;-68
2022/12/03 13:09:25;;;;;;;24.35;10.88;;;3.00;99.90;;;;;;5137636;27;20450;-68